Air Navigation Services of Czech Republic
Airport: LKTB Updated:  24.09.2018 00:01:06  UTC
 METAR LKTB 24.09. 00:00 ...
METAR LKTB 240000Z 29024G35KT 9999 -RA FEW019 BKN038 14/10 Q1010 NOSIG RMK REG QNH 1004=
 TAF LKTB 23.09. 23:00 ...
TAF LKTB 232300Z 2400/2506 20012KT 9999 -RA BKN040      BECMG 2400/2402 30016G30KT      TEMPO 2402/2419 33018G32KT 9000 -SHRA SCT020TCU=